Time;durP1;ratioP1;P1;durP2;ratioP2;P2;SDS_P1;SDS_P2;PMS_P1;PMS_P2;Temp;Humidity;BMP_temperature;BMP_pressure;BME280_temperature;BME280_humidity;BME280_pressure;Samples;Min_cycle;Max_cycle;Signal;HPM_P1;HPM_P2
2024/02/11 00:01:21;;;;;;;;;4.67;3.00;;;;;-144.24;100.00;66904.94;5038458;28;45439;-74
2024/02/11 00:03:46;;;;;;;;;5.67;2.67;;;;;-144.24;100.00;66906.94;5057988;28;45881;-74
2024/02/11 00:06:12;;;;;;;;;5.00;3.00;;;;;-144.24;100.00;66991.50;5056971;28;45498;-74
2024/02/11 00:08:41;;;;;;;;;8.33;3.67;;;;;-144.24;100.00;67116.34;5057704;28;45466;-75
2024/02/11 00:11:07;;;;;;;;;5.33;1.33;;;;;-144.24;100.00;66929.09;5058577;28;45518;-74
2024/02/11 00:13:33;;;;;;;;;5.33;2.67;;;;;-144.24;100.00;67118.38;5039413;28;45651;-74
2024/02/11 00:16:01;;;;;;;;;2.00;2.00;;;;;-144.24;100.00;66927.09;5048159;28;45409;-75
2024/02/11 00:18:28;;;;;;;;;6.33;2.33;;;;;-144.24;100.00;67176.75;5057945;28;45449;-75
2024/02/11 00:20:56;;;;;;;;;7.67;2.67;;;;;-144.24;100.00;67120.38;5056073;28;45425;-74
2024/02/11 00:23:22;;;;;;;;;5.00;2.33;;;;;-144.24;100.00;67390.22;5033906;28;46430;-75
2024/02/11 00:25:53;;;;;;;;;3.00;3.00;;;;;-144.24;100.00;67372.09;5057874;28;45326;-74
2024/02/11 00:28:23;;;;;;;;;2.00;2.00;;;;;-144.24;100.00;67090.19;5025869;28;45495;-75
2024/02/11 00:30:48;;;;;;;;;14.33;6.67;;;;;-144.24;100.00;67174.75;5032200;28;45511;-74
2024/02/11 00:33:15;;;;;;;;;6.33;3.00;;;;;-144.24;100.00;67331.81;5035319;28;47569;-75
2024/02/11 00:35:40;;;;;;;;;7.33;6.67;;;;;-144.24;100.00;67263.34;5038144;28;45500;-74
2024/02/11 00:38:06;;;;;;;;;10.00;3.00;;;;;-144.24;100.00;67370.09;5038728;28;45486;-75
2024/02/11 00:40:31;;;;;;;;;8.00;3.67;;;;;-144.24;100.00;67402.31;5026298;28;45380;-74
2024/02/11 00:42:58;;;;;;;;;3.00;3.00;;;;;-144.24;100.00;67321.75;5054911;28;53889;-75
2024/02/11 00:45:24;;;;;;;;;9.67;4.67;;;;;-144.24;100.00;67241.19;5056857;28;45488;-76
2024/02/11 00:47:50;;;;;;;;;3.00;3.00;;;;;-144.24;100.00;67178.78;5038714;28;53240;-75
2024/02/11 00:50:16;;;;;;;;;4.67;3.33;;;;;-144.24;100.00;67080.13;5058279;28;45447;-75
2024/02/11 00:52:41;;;;;;;;;5.00;3.00;;;;;-144.24;100.00;66997.56;5056209;28;46260;-74
2024/02/11 00:55:09;;;;;;;;;6.33;4.33;;;;;-144.24;100.00;67039.84;5057932;28;45358;-75
2024/02/11 00:57:36;;;;;;;;;3.67;2.33;;;;;-144.24;100.00;66989.50;5039564;28;45393;-74
2024/02/11 01:00:12;;;;;;;;;4.00;2.00;;;;;-144.24;100.00;67233.16;5057670;28;45478;-75
2024/02/11 01:02:38;;;;;;;;;10.67;3.33;;;;;-144.24;100.00;66995.53;5038724;28;45928;-75
2024/02/11 01:05:04;;;;;;;;;7.33;2.00;;;;;-144.24;100.00;67124.41;5056973;28;60841;-75
2024/02/11 01:07:33;;;;;;;;;3.00;2.00;;;;;-144.24;100.00;67009.63;5057222;28;45311;-74
2024/02/11 01:09:58;;;;;;;;;8.00;3.00;;;;;-144.24;100.00;67062.00;5057252;28;45290;-75
2024/02/11 01:12:24;;;;;;;;;2.67;2.33;;;;;-144.24;100.00;67581.53;5057602;28;46639;-75
2024/02/11 01:14:50;;;;;;;;;3.00;2.00;;;;;-144.24;100.00;67821.19;5057284;28;45303;-74
2024/02/11 01:17:19;;;;;;;;;10.33;3.33;;;;;-144.24;100.00;67996.41;5057260;28;45442;-74
2024/02/11 01:19:45;;;;;;;;;7.00;2.67;;;;;-144.24;100.00;68048.78;5040121;28;45293;-74
2024/02/11 01:22:11;;;;;;;;;7.67;3.00;;;;;-144.24;100.00;68103.16;5056359;28;46614;-75
2024/02/11 01:24:36;;;;;;;;;9.00;3.67;;;;;-144.24;100.00;68745.72;5038726;28;45380;-74
2024/02/11 01:27:02;;;;;;;;;6.67;4.00;;;;;-144.24;100.00;68860.53;5055820;28;62614;-74
2024/02/11 01:29:27;;;;;;;;;3.00;2.00;;;;;-144.24;100.00;69035.81;5056765;28;45489;-74
2024/02/11 01:31:52;;;;;;;;;4.00;2.00;;;;;-144.24;100.00;68989.47;5056176;28;62452;-75
2024/02/11 01:34:18;;;;;;;;;6.00;3.33;;;;;-144.24;100.00;69003.56;5055816;28;59524;-74
2024/02/11 01:36:45;;;;;;;;;3.67;3.00;;;;;-144.24;100.00;68993.50;5055961;28;65251;-75
2024/02/11 01:39:11;;;;;;;;;7.67;3.33;;;;;-144.24;100.00;68929.03;5056086;28;45663;-74
2024/02/11 01:41:37;;;;;;;;;7.00;3.00;;;;;-144.24;100.00;69092.22;5040457;28;53273;-74
2024/02/11 01:44:03;;;;;;;;;5.67;3.00;;;;;-144.24;100.00;69261.44;5034017;28;45359;-75
2024/02/11 01:46:28;;;;;;;;;9.00;3.00;;;;;-144.24;100.00;69156.69;5046378;28;45318;-75
2024/02/11 01:48:54;;;;;;;;;8.00;2.67;;;;;-144.24;100.00;69092.22;5038527;28;45261;-74
2024/02/11 01:51:20;;;;;;;;;8.00;3.00;;;;;-144.24;100.00;69190.94;5038352;28;46759;-74
2024/02/11 01:53:48;;;;;;;;;2.67;2.00;;;;;-144.24;100.00;69074.06;5054678;28;70922;-74
2024/02/11 01:56:13;;;;;;;;;4.67;3.00;;;;;-144.24;100.00;68904.84;5056069;28;45431;-74
2024/02/11 01:58:39;;;;;;;;;6.33;2.33;;;;;-144.24;100.00;69051.91;5054635;28;64896;-74
2024/02/11 02:01:04;;;;;;;;;9.33;4.00;;;;;-144.24;100.00;68999.53;5054545;28;67531;-74
2024/02/11 02:03:31;;;;;;;;;7.00;2.67;;;;;-144.24;100.00;69178.84;5038547;28;45308;-75
2024/02/11 02:05:56;;;;;;;;;5.00;2.00;;;;;-144.24;100.00;69241.28;5044580;28;66499;-74
2024/02/11 02:08:23;;;;;;;;;4.67;3.00;;;;;-144.24;100.00;69112.34;5054846;28;61532;-74
2024/02/11 02:10:48;;;;;;;;;4.00;2.67;;;;;-144.24;100.00;69098.25;5038054;28;47473;-74
2024/02/11 02:13:14;;;;;;;;;7.00;2.00;;;;;-144.24;100.00;68989.47;5037697;28;57485;-74
2024/02/11 02:15:39;;;;;;;;;2.00;2.00;;;;;-144.24;100.00;68955.22;5055384;28;52346;-74
2024/02/11 02:18:07;;;;;;;;;3.33;1.00;;;;;-144.24;100.00;68987.44;5055247;28;63220;-74
2024/02/11 02:20:32;;;;;;;;;6.33;2.33;;;;;-144.24;100.00;69132.50;5055384;28;46175;-74
2024/02/11 02:22:58;;;;;;;;;7.67;3.00;;;;;-144.24;100.00;68989.47;5055660;28;45476;-74
2024/02/11 02:25:24;;;;;;;;;3.00;2.00;;;;;-144.24;100.00;69068.03;5037879;28;45336;-74
2024/02/11 02:27:49;;;;;;;;;3.00;2.67;;;;;-144.24;100.00;68888.75;5055926;28;45438;-74
2024/02/11 02:30:15;;;;;;;;;5.00;3.33;;;;;-144.24;100.00;68918.94;5037270;28;51558;-74
2024/02/11 02:32:40;;;;;;;;;6.00;2.00;;;;;-144.24;100.00;69037.81;5054223;28;45532;-74
2024/02/11 02:35:06;;;;;;;;;8.00;3.00;;;;;-144.24;100.00;69021.69;5055538;28;45469;-74
2024/02/11 02:37:32;;;;;;;;;6.33;1.33;;;;;-144.24;100.00;69201.00;5055653;28;45493;-74
2024/02/11 02:39:57;;;;;;;;;3.00;2.00;;;;;-144.24;100.00;68870.59;5054669;28;46728;-74
2024/02/11 02:42:23;;;;;;;;;4.00;2.00;;;;;-144.24;100.00;69098.25;5055726;28;45275;-74
2024/02/11 02:44:48;;;;;;;;;7.33;1.00;;;;;-144.24;100.00;69164.72;5036844;28;53473;-74
2024/02/11 02:47:14;;;;;;;;;4.00;1.67;;;;;-144.24;100.00;69019.69;5047692;28;62029;-74
2024/02/11 02:49:40;;;;;;;;;0.67;0.67;;;;;-144.24;100.00;69144.59;5037318;28;46257;-74
2024/02/11 02:52:07;;;;;;;;;2.00;1.00;;;;;-144.24;100.00;69076.09;5055516;28;45354;-75
2024/02/11 02:54:32;;;;;;;;;5.00;2.00;;;;;-144.24;100.00;69120.41;5054887;28;45478;-74
2024/02/11 02:56:58;;;;;;;;;5.67;2.00;;;;;-144.24;100.00;69297.69;5055881;28;45322;-74
2024/02/11 02:59:24;;;;;;;;;5.67;1.67;;;;;-144.24;100.00;69726.88;5054219;28;45503;-74
2024/02/11 03:01:50;;;;;;;;;2.00;2.00;;;;;-144.24;100.00;69813.50;5055130;28;45427;-74
2024/02/11 03:04:16;;;;;;;;;8.00;2.00;;;;;-144.24;100.00;69902.16;5044667;28;61603;-74
2024/02/11 03:06:42;;;;;;;;;5.00;1.00;;;;;-144.24;100.00;70061.34;5052255;28;45710;-74
2024/02/11 03:09:08;;;;;;;;;2.00;2.00;;;;;-144.24;100.00;70031.13;5036997;28;45922;-74
2024/02/11 03:11:34;;;;;;;;;4.00;2.67;;;;;-144.24;100.00;70216.53;5054452;28;45544;-74
2024/02/11 03:13:59;;;;;;;;;4.00;2.00;;;;;-144.24;100.00;70315.25;5054058;28;45462;-73
2024/02/11 03:16:25;;;;;;;;;7.33;2.00;;;;;-144.24;100.00;70228.63;5054413;28;45552;-74
2024/02/11 03:18:50;;;;;;;;;5.67;3.00;;;;;-144.24;100.00;70369.69;5036296;28;49032;-74
2024/02/11 03:21:15;;;;;;;;;4.00;2.00;;;;;-144.24;100.00;70581.28;5031343;28;64277;-73
2024/02/11 03:23:41;;;;;;;;;7.00;3.00;;;;;-144.24;100.00;70428.13;5040055;28;67003;-73
2024/02/11 03:26:11;;;;;;;;;2.67;1.00;;;;;-144.24;100.00;70551.06;5038675;28;64433;-73
2024/02/11 03:28:39;;;;;;;;;3.67;2.00;;;;;-144.24;100.00;70516.78;5041095;28;45803;-74
2024/02/11 03:31:05;;;;;;;;;3.00;1.67;;;;;-144.24;100.00;70458.34;5058431;28;45646;-73
2024/02/11 03:33:31;;;;;;;;;3.67;2.00;;;;;-144.24;100.00;70661.91;5040010;28;45418;-74
2024/02/11 03:35:57;;;;;;;;;1.67;1.00;;;;;-144.24;100.00;70740.50;5056977;28;45637;-74
2024/02/11 03:38:23;;;;;;;;;7.67;2.00;;;;;-144.24;100.00;70696.16;5058341;28;45817;-74
2024/02/11 03:40:50;;;;;;;;;2.00;2.00;;;;;-144.24;100.00;70671.97;5056936;28;45484;-74
2024/02/11 03:43:15;;;;;;;;;10.00;1.00;;;;;-144.24;100.00;70750.59;5040486;28;45425;-74
2024/02/11 03:45:40;;;;;;;;;4.67;1.00;;;;;-144.24;100.00;70770.75;5040159;28;45576;-74
2024/02/11 03:48:07;;;;;;;;;4.00;0.00;;;;;-144.24;100.00;70756.63;5056470;28;72240;-74
2024/02/11 03:50:32;;;;;;;;;5.67;2.33;;;;;-144.24;100.00;70676.00;5057644;28;46369;-75
2024/02/11 03:53:01;;;;;;;;;1.67;1.33;;;;;-144.24;100.00;70855.38;5058324;28;45466;-74
2024/02/11 03:55:27;;;;;;;;;1.67;1.00;;;;;-144.24;100.00;70627.63;5058230;28;45464;-75
2024/02/11 03:57:53;;;;;;;;;2.67;1.00;;;;;-144.24;100.00;70887.63;5039803;28;47335;-74
2024/02/11 04:00:25;;;;;;;;;5.00;1.00;;;;;-144.24;100.00;70643.75;5058088;28;45513;-74
2024/02/11 04:02:52;;;;;;;;;5.00;2.00;;;;;-144.24;100.00;70549.03;5040627;28;45457;-74
2024/02/11 04:05:20;;;;;;;;;1.00;1.00;;;;;-144.24;100.00;70724.38;5058568;28;45330;-74
2024/02/11 04:07:45;;;;;;;;;6.33;2.00;;;;;-144.24;100.00;70732.44;5056935;28;45691;-74
2024/02/11 04:10:19;;;;;;;;;6.00;1.00;;;;;-144.24;100.00;70561.13;5039946;28;45439;-74
2024/02/11 04:12:48;;;;;;;;;4.00;1.00;;;;;-144.24;100.00;70365.66;5009989;28;45428;-74
2024/02/11 04:15:19;;;;;;;;;4.00;1.00;;;;;-144.24;100.00;70458.34;5040452;28;45706;-73
2024/02/11 04:17:48;;;;;;;;;5.33;1.00;;;;;-144.24;100.00;70393.88;5057770;28;46832;-74
2024/02/11 04:20:23;;;;;;;;;4.00;1.00;;;;;-144.24;100.00;70432.16;5057935;28;45452;-74
2024/02/11 04:22:51;;;;;;;;;8.00;1.67;;;;;-144.24;100.00;70337.44;5040851;28;45206;-74
2024/02/11 04:25:20;;;;;;;;;0.67;0.00;;;;;-144.24;100.00;70365.66;5057572;28;45458;-74
2024/02/11 04:27:46;;;;;;;;;5.00;2.00;;;;;-144.24;100.00;70347.50;5040364;28;45919;-74
2024/02/11 04:30:12;;;;;;;;;3.00;1.00;;;;;-144.24;100.00;70567.19;5039827;28;45538;-74
2024/02/11 04:32:41;;;;;;;;;3.67;2.67;;;;;-144.24;100.00;70502.69;5039013;28;45214;-74
2024/02/11 04:35:13;;;;;;;;;4.33;1.00;;;;;-144.24;100.00;70768.72;5057277;28;47014;-74
2024/02/11 04:37:40;;;;;;;;;6.00;1.00;;;;;-144.24;100.00;70593.38;5056892;28;46209;-74
2024/02/11 04:40:10;;;;;;;;;2.33;1.00;;;;;-144.24;100.00;70750.59;5054317;28;45490;-74
2024/02/11 04:42:40;;;;;;;;;1.00;1.00;;;;;-144.24;100.00;70774.75;5039536;28;45332;-73
2024/02/11 04:45:06;;;;;;;;;6.33;1.00;;;;;-144.24;100.00;70925.94;5039744;28;45373;-73
2024/02/11 04:47:31;;;;;;;;;3.00;0.33;;;;;-144.24;100.00;71127.50;5038867;28;46297;-74
2024/02/11 04:49:56;;;;;;;;;10.00;1.67;;;;;-144.24;100.00;71189.97;5038580;28;69523;-74
2024/02/11 04:52:24;;;;;;;;;2.00;1.00;;;;;-144.24;100.00;71171.84;5056106;28;65526;-75
2024/02/11 04:54:49;;;;;;;;;5.00;1.00;;;;;-144.24;100.00;71036.78;5049901;28;45391;-74
2024/02/11 04:57:16;;;;;;;;;2.33;2.00;;;;;-144.24;100.00;71099.28;5053009;28;69187;-74
2024/02/11 04:59:42;;;;;;;;;1.67;1.00;;;;;-144.24;100.00;71189.97;5057026;28;45516;-73
2024/02/11 05:02:08;;;;;;;;;2.00;1.00;;;;;-144.24;100.00;71256.50;5038747;28;45392;-75
2024/02/11 05:04:33;;;;;;;;;4.33;1.00;;;;;-144.24;100.00;71452.03;5038578;28;45428;-74
2024/02/11 05:06:59;;;;;;;;;1.00;0.67;;;;;-144.24;100.00;71417.75;5037907;28;46547;-74
2024/02/11 05:09:27;;;;;;;;;3.00;0.00;;;;;-144.24;100.00;71415.75;5038195;28;50621;-75
2024/02/11 05:11:54;;;;;;;;;4.67;1.00;;;;;-144.24;100.00;71323.00;5038844;28;45293;-74
2024/02/11 05:14:19;;;;;;;;;2.00;1.00;;;;;-144.24;100.00;71411.72;5056488;28;45480;-74
2024/02/11 05:16:45;;;;;;;;;1.67;1.00;;;;;-144.24;100.00;71532.66;5056824;28;46380;-74
2024/02/11 05:19:14;;;;;;;;;1.00;1.00;;;;;-144.24;100.00;71476.22;5022467;28;45304;-74
2024/02/11 05:21:42;;;;;;;;;1.67;0.67;;;;;-144.24;100.00;71460.09;5057248;28;45402;-74
2024/02/11 05:24:07;;;;;;;;;3.00;1.00;;;;;-144.24;100.00;71443.97;5056293;28;45462;-74
2024/02/11 05:26:32;;;;;;;;;1.67;0.33;;;;;-144.24;100.00;71693.94;5055869;28;49546;-74
2024/02/11 05:29:03;;;;;;;;;2.00;1.67;;;;;-144.24;100.00;71724.16;5057688;28;45355;-74
2024/02/11 05:31:29;;;;;;;;;3.67;1.00;;;;;-144.24;100.00;71637.47;5054864;28;45422;-74
2024/02/11 05:33:55;;;;;;;;;4.67;1.33;;;;;-144.24;100.00;71758.44;5038504;28;45305;-74
2024/02/11 05:36:21;;;;;;;;;3.00;1.00;;;;;-144.24;100.00;71853.19;5056305;28;46384;-74
2024/02/11 05:38:47;;;;;;;;;1.00;1.00;;;;;-144.24;100.00;71869.31;5037946;28;45316;-74
2024/02/11 05:41:12;;;;;;;;;1.00;1.00;;;;;-144.24;100.00;71691.91;5054392;28;45388;-75
2024/02/11 05:43:38;;;;;;;;;3.00;1.00;;;;;-144.24;100.00;71734.25;5055290;28;61026;-74
2024/02/11 05:46:03;;;;;;;;;1.00;0.67;;;;;-144.24;100.00;71693.94;5055197;28;72552;-74
2024/02/11 05:48:29;;;;;;;;;2.00;0.67;;;;;-144.24;100.00;71566.91;5056120;28;45382;-74
2024/02/11 05:50:54;;;;;;;;;0.33;0.33;;;;;-144.24;100.00;71643.53;5056283;28;45370;-74
2024/02/11 05:53:19;;;;;;;;;2.67;0.67;;;;;-144.24;100.00;71810.84;5037986;28;64235;-74
2024/02/11 05:55:45;;;;;;;;;1.00;0.67;;;;;-144.24;100.00;71812.88;5055055;28;70349;-74
2024/02/11 05:58:11;;;;;;;;;2.33;2.00;;;;;-144.24;100.00;71966.09;5056358;28;46293;-74
2024/02/11 06:00:37;;;;;;;;;7.33;2.00;;;;;-144.24;100.00;71945.94;5054953;28;64253;-74
2024/02/11 06:03:02;;;;;;;;;1.33;0.33;;;;;-144.24;100.00;71851.16;5038235;28;45609;-74
2024/02/11 06:05:28;;;;;;;;;2.33;2.00;;;;;-144.24;100.00;71822.94;5055937;28;46387;-74
2024/02/11 06:07:55;;;;;;;;;4.00;2.00;;;;;-144.24;100.00;72028.59;5056163;28;45353;-74
2024/02/11 06:10:22;;;;;;;;;3.33;1.00;;;;;-144.24;100.00;71968.09;5055751;28;45401;-74
2024/02/11 06:12:48;;;;;;;;;5.00;1.00;;;;;-144.24;100.00;71992.28;5055356;28;45605;-74
2024/02/11 06:15:15;;;;;;;;;2.00;1.00;;;;;-144.24;100.00;71964.06;5055645;28;46700;-74
2024/02/11 06:17:41;;;;;;;;;2.33;0.33;;;;;-144.24;100.00;72185.84;5055389;28;45462;-73
2024/02/11 06:20:13;;;;;;;;;3.00;1.00;;;;;-144.24;100.00;72234.22;5036939;28;46072;-74
2024/02/11 06:22:42;;;;;;;;;2.00;0.00;;;;;-144.24;100.00;72010.44;5056502;28;45434;-74
2024/02/11 06:25:08;;;;;;;;;2.00;2.00;;;;;-144.24;100.00;72121.31;5055168;28;46143;-74
2024/02/11 06:27:34;;;;;;;;;4.00;1.00;;;;;-144.24;100.00;72445.94;5037900;28;45349;-74
2024/02/11 06:29:59;;;;;;;;;2.00;1.00;;;;;-144.24;100.00;72474.16;5037640;28;45459;-74
2024/02/11 06:32:25;;;;;;;;;3.67;0.00;;;;;-144.24;100.00;72552.81;5052388;28;45411;-73
2024/02/11 06:34:55;;;;;;;;;5.67;1.00;;;;;-144.24;100.00;72524.56;5037465;28;46143;-74
2024/02/11 06:37:20;;;;;;;;;3.00;1.33;;;;;-144.24;100.00;72369.31;5198763;22;45428;-73
2024/02/11 06:39:46;;;;;;;;;0.00;0.00;;;;;-144.24;100.00;72655.63;5072272;27;45462;-73
2024/02/11 06:42:14;;;;;;;;;1.00;0.00;;;;;-144.24;100.00;72542.72;5068048;27;45413;-74
2024/02/11 06:44:40;;;;;;;;;2.67;1.33;;;;;-144.24;100.00;72651.59;5047436;28;45945;-74
2024/02/11 06:47:08;;;;;;;;;2.00;1.00;;;;;-144.24;100.00;72794.78;5072256;28;45423;-74
2024/02/11 06:49:34;;;;;;;;;2.00;0.33;;;;;-144.24;100.00;72871.41;5050880;28;45444;-73
2024/02/11 06:52:00;;;;;;;;;1.00;1.00;;;;;-144.24;100.00;72800.81;5074550;28;45381;-74
2024/02/11 06:54:27;;;;;;;;;3.00;1.67;;;;;-144.24;100.00;73127.50;5069930;28;46139;-73
2024/02/11 06:56:53;;;;;;;;;2.33;1.00;;;;;-144.24;100.00;73183.97;5078124;28;45414;-74
2024/02/11 06:59:18;;;;;;;;;1.00;0.00;;;;;-144.24;100.00;73260.59;5062650;28;46304;-74
2024/02/11 07:01:45;;;;;;;;;2.00;1.00;;;;;-144.24;100.00;73460.28;5079243;28;45485;-73
2024/02/11 07:04:12;;;;;;;;;1.00;1.00;;;;;-144.24;100.00;73593.38;5076172;28;45760;-73
2024/02/11 07:06:44;;;;;;;;;0.67;0.67;;;;;-144.24;100.00;73641.78;5061098;28;45398;-73
2024/02/11 07:09:11;;;;;;;;;3.33;0.00;;;;;-144.24;100.00;73432.03;5063611;27;45529;-73
2024/02/11 07:11:38;;;;;;;;;5.00;0.00;;;;;-144.24;100.00;73609.53;5061961;28;46213;-74
2024/02/11 07:14:06;;;;;;;;;3.00;0.00;;;;;-144.24;100.00;73843.47;5078280;28;45611;-72
2024/02/11 07:16:32;;;;;;;;;3.00;0.67;;;;;-144.24;100.00;73873.75;5079453;28;45469;-74
2024/02/11 07:18:57;;;;;;;;;4.00;1.33;;;;;-144.24;100.00;73958.47;5078635;28;45461;-73
2024/02/11 07:21:22;;;;;;;;;2.00;1.00;;;;;-144.24;100.00;74146.03;5063034;28;64024;-74
2024/02/11 07:23:48;;;;;;;;;2.00;1.00;;;;;-144.24;100.00;74236.81;5078450;28;62708;-73
2024/02/11 07:26:14;;;;;;;;;0.00;0.00;;;;;-144.24;100.00;74244.88;5060042;28;45253;-73
2024/02/11 07:28:41;;;;;;;;;2.00;1.00;;;;;-144.24;100.00;74196.47;5077526;28;45414;-74
2024/02/11 07:31:07;;;;;;;;;4.33;0.00;;;;;-144.24;100.00;74200.50;5036947;28;45636;-74
2024/02/11 07:33:33;;;;;;;;;3.00;0.00;;;;;-144.24;100.00;74357.84;5074844;28;45780;-73
2024/02/11 07:35:58;;;;;;;;;5.00;0.00;;;;;-144.24;100.00;74513.19;5068633;28;46062;-73
2024/02/11 07:38:25;;;;;;;;;1.00;1.00;;;;;-144.24;100.00;74140.00;5069760;28;45292;-73
2024/02/11 07:40:53;;;;;;;;;1.00;0.33;;;;;-144.24;100.00;74329.63;5059069;28;45559;-74
2024/02/11 07:43:18;;;;;;;;;4.33;1.67;;;;;-144.24;100.00;74333.66;5078242;28;45903;-74
2024/02/11 07:45:44;;;;;;;;;4.00;1.00;;;;;-144.24;100.00;74033.09;5076476;28;45461;-73
2024/02/11 07:48:09;;;;;;;;;1.67;1.00;;;;;-144.24;100.00;74206.56;5078162;28;45512;-73
2024/02/11 07:50:36;;;;;;;;;2.00;1.00;;;;;-144.24;100.00;74188.41;5077320;28;51686;-73
2024/02/11 07:53:04;;;;;;;;;2.33;0.00;;;;;-144.24;100.00;74033.09;5077303;28;46075;-74
2024/02/11 07:55:31;;;;;;;;;0.67;0.00;;;;;-144.24;100.00;73849.53;5069122;28;45497;-73
2024/02/11 07:57:59;;;;;;;;;4.67;1.00;;;;;-144.24;100.00;73795.06;5066970;28;45558;-74
2024/02/11 08:00:24;;;;;;;;;2.33;1.00;;;;;-144.24;100.00;73956.44;5078794;28;46231;-74
2024/02/11 08:02:50;;;;;;;;;1.00;1.00;;;;;-144.24;100.00;73746.66;5060819;28;64536;-72
2024/02/11 08:05:15;;;;;;;;;1.00;0.00;;;;;-144.24;100.00;73962.50;5078381;28;45696;-73
2024/02/11 08:07:41;;;;;;;;;1.00;1.00;;;;;-144.24;100.00;73613.56;5074582;28;63032;-74
2024/02/11 08:10:07;;;;;;;;;2.00;0.00;;;;;-144.24;100.00;73512.72;5082165;27;62349;-73
2024/02/11 08:12:33;;;;;;;;;4.00;0.00;;;;;-144.24;100.00;73363.47;5077742;28;45569;-73
2024/02/11 08:14:58;;;;;;;;;2.33;0.00;;;;;-144.24;100.00;73454.22;5077837;28;45180;-73
2024/02/11 08:17:23;;;;;;;;;2.00;0.00;;;;;-144.24;100.00;73627.66;5056430;28;50220;-74
2024/02/11 08:19:49;;;;;;;;;2.00;0.00;;;;;-144.24;100.00;73833.41;5056153;28;66325;-74
2024/02/11 08:22:14;;;;;;;;;1.33;0.00;;;;;-144.24;100.00;73829.38;5053263;28;71086;-73
2024/02/11 08:24:40;;;;;;;;;4.00;1.00;;;;;-144.24;100.00;73772.88;5073101;28;45332;-73
2024/02/11 08:27:07;;;;;;;;;1.67;0.00;;;;;-144.24;100.00;73718.44;5074925;28;45439;-73
2024/02/11 08:29:32;;;;;;;;;2.33;1.00;;;;;-144.24;100.00;74539.41;5055112;28;45464;-73
2024/02/11 08:31:57;;;;;;;;;1.00;0.00;;;;;-144.24;100.00;74376.00;5065091;28;45796;-74
2024/02/11 08:34:23;;;;;;;;;2.00;0.00;;;;;-144.24;100.00;74547.47;5076815;28;67918;-73
2024/02/11 08:36:48;;;;;;;;;1.00;1.00;;;;;-144.24;100.00;74785.53;5076362;28;45698;-74
2024/02/11 08:39:14;;;;;;;;;5.00;0.00;;;;;-144.24;100.00;74876.31;5076416;28;66013;-74
2024/02/11 08:41:39;;;;;;;;;1.00;1.00;;;;;-144.24;100.00;75336.34;5077813;28;46097;-73
2024/02/11 08:44:08;;;;;;;;;2.00;0.00;;;;;-144.24;100.00;75522.00;5078050;28;45303;-73
2024/02/11 08:46:33;;;;;;;;;2.00;1.00;;;;;-144.24;100.00;75546.22;5090064;27;45496;-74
2024/02/11 08:48:58;;;;;;;;;0.00;0.00;;;;;-144.24;100.00;75667.28;5077008;28;60346;-73
2024/02/11 08:51:24;;;;;;;;;3.33;1.00;;;;;-144.24;100.00;75643.06;5076213;28;71723;-73
2024/02/11 08:53:50;;;;;;;;;2.00;0.00;;;;;-144.24;100.00;75673.34;5077148;28;68803;-74
2024/02/11 08:56:17;;;;;;;;;0.33;0.33;;;;;-144.24;100.00;75828.72;5077969;28;45241;-73
2024/02/11 08:58:42;;;;;;;;;4.00;0.00;;;;;-144.24;100.00;75919.53;5078149;28;45521;-73
2024/02/11 09:01:10;;;;;;;;;9.33;0.33;;;;;-144.24;100.00;76313.06;5077160;28;45881;-73
2024/02/11 09:03:39;;;;;;;;;3.00;0.67;;;;;-144.24;100.00;76531.03;5077386;28;45253;-73
2024/02/11 09:06:05;;;;;;;;;2.00;0.00;;;;;-144.24;100.00;76609.75;5058538;28;49885;-74
2024/02/11 09:08:32;;;;;;;;;2.00;1.00;;;;;-144.24;100.00;77005.38;5072905;28;45735;-73
2024/02/11 09:10:57;;;;;;;;;2.67;0.00;;;;;-144.24;100.00;77479.78;5055736;28;46070;-74
2024/02/11 09:13:23;;;;;;;;;3.00;0.00;;;;;-144.24;100.00;77790.72;5063937;28;45334;-73
2024/02/11 09:15:49;;;;;;;;;2.00;1.00;;;;;-144.24;100.00;78073.38;5069510;28;45492;-75
2024/02/11 09:18:19;;;;;;;;;1.00;1.00;;;;;-144.24;100.00;78354.06;5057904;28;45471;-73
2024/02/11 09:20:44;;;;;;;;;2.00;0.00;;;;;-144.24;100.00;79347.66;5056771;28;46917;-74
2024/02/11 09:23:10;;;;;;;;;3.00;0.00;;;;;-144.24;100.00;79507.22;5079316;27;45346;-73
2024/02/11 09:25:36;;;;;;;;;1.00;1.00;;;;;-144.24;100.00;79794.06;5075606;28;45247;-70
2024/02/11 09:28:01;;;;;;;;;1.00;0.67;;;;;-144.24;100.00;80424.34;5076492;28;45606;-73
2024/02/11 09:30:26;;;;;;;;;1.67;0.67;;;;;-144.24;100.00;81030.50;5064005;28;45868;-72
2024/02/11 09:32:52;;;;;;;;;2.33;0.33;;;;;-144.24;100.00;81519.53;5063031;28;64746;-73
2024/02/11 09:35:20;;;;;;;;;2.00;1.00;;;;;-144.24;100.00;81760.00;5046592;28;45315;-74
2024/02/11 09:37:46;;;;;;;;;1.00;1.00;;;;;-144.24;100.00;81897.44;5049006;28;45624;-74
2024/02/11 09:40:11;;;;;;;;;3.00;1.00;;;;;-144.24;100.00;82079.34;5069015;27;45549;-73
2024/02/11 09:42:39;;;;;;;;;1.00;1.00;;;;;-144.24;100.00;82176.34;5073727;27;71192;-73
2024/02/11 09:45:06;;;;;;;;;4.00;1.33;;;;;-144.24;100.00;82443.16;5070291;28;45152;-73
2024/02/11 09:47:34;;;;;;;;;8.00;1.00;;;;;-144.24;100.00;82780.75;5036341;28;45642;-73
2024/02/11 09:50:01;;;;;;;;;0.00;0.00;;;;;-144.24;100.00;83635.94;5056081;28;45529;-74
2024/02/11 09:52:26;;;;;;;;;0.00;0.00;;;;;-144.24;100.00;83710.75;5067541;28;45474;-73
2024/02/11 09:54:53;;;;;;;;;1.00;1.00;;;;;-144.24;100.00;84096.97;5073938;28;61806;-74
2024/02/11 09:57:18;;;;;;;;;2.00;0.33;;;;;-144.24;100.00;84814.91;5041317;28;45241;-74
2024/02/11 09:59:45;;;;;;;;;1.33;0.67;;;;;-144.24;100.00;84958.50;5057919;28;46635;-74
2024/02/11 10:02:22;;;;;;;;;0.00;0.00;;;;;-144.24;100.00;85352.94;5073512;28;45502;-74
2024/02/11 10:04:49;;;;;;;;;3.00;2.00;;;;;-144.24;100.00;85781.78;5047926;28;45502;-74
2024/02/11 10:07:25;;;;;;;;;1.67;0.00;;;;;-144.24;100.00;86176.31;5057976;28;45373;-74
2024/02/11 10:09:51;;;;;;;;;2.00;0.67;;;;;-144.24;100.00;86439.31;5048514;28;45709;-73
2024/02/11 10:12:19;;;;;;;;;3.00;1.00;;;;;-144.24;100.00;87050.44;5064452;28;45425;-73
2024/02/11 10:14:54;;;;;;;;;0.00;0.00;;;;;-144.24;100.00;87649.47;5048479;28;45497;-73
2024/02/11 10:17:22;;;;;;;;;3.00;0.00;;;;;-144.24;100.00;88056.31;5054977;28;45496;-74
2024/02/11 10:19:52;;;;;;;;;1.33;1.00;;;;;-144.24;100.00;88521.91;5048257;28;46365;-74
2024/02/11 10:22:18;;;;;;;;;2.33;0.33;;;;;-144.24;100.00;89153.56;5043174;28;45545;-68
2024/02/11 10:24:45;;;;;;;;;3.00;1.00;;;;;-144.24;100.00;89884.53;5065660;28;45622;-68
2024/02/11 10:27:10;;;;;;;;;4.00;1.00;;;;;-144.24;100.00;90753.41;5048354;28;45753;-70
2024/02/11 10:29:36;;;;;;;;;1.33;1.33;;;;;-144.24;100.00;91306.41;5056726;28;45751;-68
2024/02/11 10:32:08;;;;;;;;;0.67;0.67;;;;;-144.24;100.00;91924.31;5067356;28;45605;-69
2024/02/11 10:34:34;;;;;;;;;2.00;1.00;;;;;-144.24;100.00;92364.00;5052702;28;45394;-68
2024/02/11 10:37:00;;;;;;;;;1.67;1.00;;;;;-144.24;100.00;92426.84;5068267;28;45448;-67
2024/02/11 10:39:26;;;;;;;;;1.00;1.00;;;;;-144.24;100.00;93950.94;5069161;28;46018;-68
2024/02/11 10:41:52;;;;;;;;;1.00;1.00;;;;;-144.24;100.00;95238.38;5082604;28;45365;-68
2024/02/11 10:44:19;;;;;;;;;0.67;0.67;;;;;-144.24;100.00;95816.31;5076632;27;45335;-68
2024/02/11 10:46:44;;;;;;;;;1.00;1.00;;;;;-144.24;100.00;96570.84;5060363;28;45499;-67
2024/02/11 10:49:11;;;;;;;;;2.00;1.00;;;;;-144.24;100.00;97090.16;5062907;28;58779;-70
2024/02/11 10:51:39;;;;;;;;;0.00;0.00;;;;;-144.24;100.00;97416.78;5082589;28;45533;-67
2024/02/11 10:57:12;;;;;;;;;1.67;0.67;;;;;-144.24;100.00;98587.59;5179557;22;45806;-67
2024/02/11 10:59:42;;;;;;;;;1.00;1.00;;;;;-144.24;100.00;98875.81;5081812;27;46658;-67
2024/02/11 11:02:09;;;;;;;;;2.67;1.67;;;;;-144.24;100.00;99565.91;5093236;27;45475;-67
2024/02/11 11:04:37;;;;;;;;;2.67;1.00;;;;;-144.24;100.00;100150.59;5080584;27;45540;-67
2024/02/11 11:07:03;;;;;;;;;1.33;0.00;;;;;-144.24;100.00;100451.06;5080803;27;45521;-66
2024/02/11 11:09:29;;;;;;;;;3.00;1.67;;;;;-144.24;100.00;101149.59;5100116;27;45632;-67